sensor_id;sensor_type;location;lat;lon;timestamp;P1;durP1;ratioP1;P2;durP2;ratioP2
7215;SDS011;3649;48.798;9.798;2023-06-10T00:01:43;6.17;;;5.67;;
7215;SDS011;3649;48.798;9.798;2023-06-10T00:04:14;9.57;;;6.07;;
7215;SDS011;3649;48.798;9.798;2023-06-10T00:06:43;7.67;;;5.87;;
7215;SDS011;3649;48.798;9.798;2023-06-10T00:09:11;5.87;;;5.37;;
7215;SDS011;3649;48.798;9.798;2023-06-10T00:11:40;8.40;;;6.40;;
7215;SDS011;3649;48.798;9.798;2023-06-10T00:14:08;6.37;;;5.87;;
7215;SDS011;3649;48.798;9.798;2023-06-10T00:16:35;5.90;;;5.30;;
7215;SDS011;3649;48.798;9.798;2023-06-10T00:19:03;6.40;;;5.80;;
7215;SDS011;3649;48.798;9.798;2023-06-10T00:21:31;6.27;;;5.77;;
7215;SDS011;3649;48.798;9.798;2023-06-10T00:24:07;7.53;;;6.83;;
7215;SDS011;3649;48.798;9.798;2023-06-10T00:26:39;7.70;;;6.73;;
7215;SDS011;3649;48.798;9.798;2023-06-10T00:29:06;7.20;;;6.47;;
7215;SDS011;3649;48.798;9.798;2023-06-10T00:31:34;6.30;;;5.70;;
7215;SDS011;3649;48.798;9.798;2023-06-10T00:34:02;7.50;;;6.20;;
7215;SDS011;3649;48.798;9.798;2023-06-10T00:36:30;7.27;;;6.30;;
7215;SDS011;3649;48.798;9.798;2023-06-10T00:38:56;7.40;;;6.77;;
7215;SDS011;3649;48.798;9.798;2023-06-10T00:41:24;7.43;;;6.70;;
7215;SDS011;3649;48.798;9.798;2023-06-10T00:43:52;7.23;;;6.50;;
7215;SDS011;3649;48.798;9.798;2023-06-10T00:46:20;7.57;;;6.77;;
7215;SDS011;3649;48.798;9.798;2023-06-10T00:48:48;9.27;;;6.63;;
7215;SDS011;3649;48.798;9.798;2023-06-10T00:51:16;6.60;;;6.00;;
7215;SDS011;3649;48.798;9.798;2023-06-10T00:53:44;6.70;;;6.10;;
7215;SDS011;3649;48.798;9.798;2023-06-10T00:56:12;6.27;;;5.77;;
7215;SDS011;3649;48.798;9.798;2023-06-10T00:58:39;6.83;;;5.40;;
7215;SDS011;3649;48.798;9.798;2023-06-10T01:01:06;6.67;;;5.97;;
7215;SDS011;3649;48.798;9.798;2023-06-10T01:03:37;6.93;;;5.63;;
7215;SDS011;3649;48.798;9.798;2023-06-10T01:08:55;6.17;;;5.67;;
7215;SDS011;3649;48.798;9.798;2023-06-10T01:11:29;6.53;;;5.33;;
7215;SDS011;3649;48.798;9.798;2023-06-10T01:14:06;6.63;;;6.03;;
7215;SDS011;3649;48.798;9.798;2023-06-10T01:16:35;5.97;;;5.47;;
7215;SDS011;3649;48.798;9.798;2023-06-10T01:19:03;6.37;;;5.87;;
7215;SDS011;3649;48.798;9.798;2023-06-10T01:21:30;6.70;;;6.13;;
7215;SDS011;3649;48.798;9.798;2023-06-10T01:24:00;6.23;;;5.73;;
7215;SDS011;3649;48.798;9.798;2023-06-10T01:26:29;7.80;;;5.97;;
7215;SDS011;3649;48.798;9.798;2023-06-10T01:28:59;6.33;;;5.73;;
7215;SDS011;3649;48.798;9.798;2023-06-10T01:31:46;6.80;;;6.20;;
7215;SDS011;3649;48.798;9.798;2023-06-10T01:34:22;6.33;;;5.70;;
7215;SDS011;3649;48.798;9.798;2023-06-10T01:36:51;6.03;;;5.43;;
7215;SDS011;3649;48.798;9.798;2023-06-10T01:39:20;6.57;;;5.97;;
7215;SDS011;3649;48.798;9.798;2023-06-10T01:41:50;6.30;;;5.70;;
7215;SDS011;3649;48.798;9.798;2023-06-10T01:44:20;7.60;;;5.87;;
7215;SDS011;3649;48.798;9.798;2023-06-10T01:46:48;7.27;;;5.80;;
7215;SDS011;3649;48.798;9.798;2023-06-10T01:49:15;6.03;;;5.63;;
7215;SDS011;3649;48.798;9.798;2023-06-10T01:51:42;6.47;;;5.87;;
7215;SDS011;3649;48.798;9.798;2023-06-10T01:54:09;8.27;;;5.50;;
7215;SDS011;3649;48.798;9.798;2023-06-10T01:56:36;6.23;;;5.50;;
7215;SDS011;3649;48.798;9.798;2023-06-10T01:59:03;5.90;;;5.40;;
7215;SDS011;3649;48.798;9.798;2023-06-10T02:01:29;5.97;;;5.37;;
7215;SDS011;3649;48.798;9.798;2023-06-10T02:03:56;5.83;;;5.37;;
7215;SDS011;3649;48.798;9.798;2023-06-10T02:06:23;5.67;;;5.20;;
7215;SDS011;3649;48.798;9.798;2023-06-10T02:08:52;5.60;;;5.20;;
7215;SDS011;3649;48.798;9.798;2023-06-10T02:11:18;6.97;;;5.73;;
7215;SDS011;3649;48.798;9.798;2023-06-10T02:13:45;9.53;;;5.53;;
7215;SDS011;3649;48.798;9.798;2023-06-10T02:16:12;7.00;;;5.80;;
7215;SDS011;3649;48.798;9.798;2023-06-10T02:18:41;6.23;;;5.73;;
7215;SDS011;3649;48.798;9.798;2023-06-10T02:21:09;6.17;;;5.50;;
7215;SDS011;3649;48.798;9.798;2023-06-10T02:23:36;5.90;;;5.40;;
7215;SDS011;3649;48.798;9.798;2023-06-10T02:26:03;6.87;;;5.40;;
7215;SDS011;3649;48.798;9.798;2023-06-10T02:28:30;5.73;;;5.30;;
7215;SDS011;3649;48.798;9.798;2023-06-10T02:30:57;5.90;;;5.40;;
7215;SDS011;3649;48.798;9.798;2023-06-10T02:33:25;7.93;;;5.70;;
7215;SDS011;3649;48.798;9.798;2023-06-10T02:35:53;6.60;;;5.90;;
7215;SDS011;3649;48.798;9.798;2023-06-10T02:38:20;7.00;;;5.80;;
7215;SDS011;3649;48.798;9.798;2023-06-10T02:40:47;6.43;;;5.93;;
7215;SDS011;3649;48.798;9.798;2023-06-10T02:43:14;5.63;;;5.10;;
7215;SDS011;3649;48.798;9.798;2023-06-10T02:45:41;6.37;;;5.80;;
7215;SDS011;3649;48.798;9.798;2023-06-10T02:48:08;6.30;;;5.73;;
7215;SDS011;3649;48.798;9.798;2023-06-10T02:50:35;5.53;;;4.77;;
7215;SDS011;3649;48.798;9.798;2023-06-10T02:53:01;5.60;;;5.10;;
7215;SDS011;3649;48.798;9.798;2023-06-10T02:55:28;5.97;;;5.10;;
7215;SDS011;3649;48.798;9.798;2023-06-10T02:57:55;5.80;;;5.30;;
7215;SDS011;3649;48.798;9.798;2023-06-10T03:00:22;6.07;;;5.30;;
7215;SDS011;3649;48.798;9.798;2023-06-10T03:02:49;6.10;;;5.60;;
7215;SDS011;3649;48.798;9.798;2023-06-10T03:05:17;6.27;;;5.27;;
7215;SDS011;3649;48.798;9.798;2023-06-10T03:07:44;8.13;;;5.90;;
7215;SDS011;3649;48.798;9.798;2023-06-10T03:10:12;6.17;;;5.57;;
7215;SDS011;3649;48.798;9.798;2023-06-10T03:12:39;5.77;;;5.23;;
7215;SDS011;3649;48.798;9.798;2023-06-10T03:15:06;5.80;;;5.30;;
7215;SDS011;3649;48.798;9.798;2023-06-10T03:17:34;5.27;;;4.87;;
7215;SDS011;3649;48.798;9.798;2023-06-10T03:20:01;5.93;;;5.43;;
7215;SDS011;3649;48.798;9.798;2023-06-10T03:22:29;6.97;;;6.27;;
7215;SDS011;3649;48.798;9.798;2023-06-10T03:24:56;5.63;;;5.13;;
7215;SDS011;3649;48.798;9.798;2023-06-10T03:27:23;5.53;;;5.10;;
7215;SDS011;3649;48.798;9.798;2023-06-10T03:29:50;6.03;;;5.53;;
7215;SDS011;3649;48.798;9.798;2023-06-10T03:32:17;6.17;;;5.57;;
7215;SDS011;3649;48.798;9.798;2023-06-10T03:34:44;6.00;;;5.40;;
7215;SDS011;3649;48.798;9.798;2023-06-10T03:37:11;5.97;;;4.17;;
7215;SDS011;3649;48.798;9.798;2023-06-10T03:39:38;5.93;;;5.33;;
7215;SDS011;3649;48.798;9.798;2023-06-10T03:42:05;5.93;;;5.07;;
7215;SDS011;3649;48.798;9.798;2023-06-10T03:44:32;5.83;;;5.33;;
7215;SDS011;3649;48.798;9.798;2023-06-10T03:47:00;5.50;;;5.03;;
7215;SDS011;3649;48.798;9.798;2023-06-10T03:49:26;6.10;;;5.60;;
7215;SDS011;3649;48.798;9.798;2023-06-10T03:51:55;5.60;;;5.00;;
7215;SDS011;3649;48.798;9.798;2023-06-10T03:54:22;5.67;;;5.13;;
7215;SDS011;3649;48.798;9.798;2023-06-10T03:56:49;5.70;;;5.13;;
7215;SDS011;3649;48.798;9.798;2023-06-10T03:59:16;5.57;;;5.07;;
7215;SDS011;3649;48.798;9.798;2023-06-10T04:01:43;5.63;;;5.13;;
7215;SDS011;3649;48.798;9.798;2023-06-10T04:04:13;8.03;;;5.27;;
7215;SDS011;3649;48.798;9.798;2023-06-10T04:06:42;6.00;;;5.50;;
7215;SDS011;3649;48.798;9.798;2023-06-10T04:09:13;5.80;;;5.30;;
7215;SDS011;3649;48.798;9.798;2023-06-10T04:11:40;5.77;;;5.23;;
7215;SDS011;3649;48.798;9.798;2023-06-10T04:14:07;5.77;;;5.07;;
7215;SDS011;3649;48.798;9.798;2023-06-10T04:16:34;5.83;;;5.33;;
7215;SDS011;3649;48.798;9.798;2023-06-10T04:19:01;5.30;;;4.83;;
7215;SDS011;3649;48.798;9.798;2023-06-10T04:21:29;5.77;;;5.27;;
7215;SDS011;3649;48.798;9.798;2023-06-10T04:23:56;6.17;;;5.57;;
7215;SDS011;3649;48.798;9.798;2023-06-10T04:26:23;5.33;;;4.83;;
7215;SDS011;3649;48.798;9.798;2023-06-10T04:28:50;6.17;;;5.57;;
7215;SDS011;3649;48.798;9.798;2023-06-10T04:31:16;5.37;;;4.97;;
7215;SDS011;3649;48.798;9.798;2023-06-10T04:33:44;5.20;;;4.80;;
7215;SDS011;3649;48.798;9.798;2023-06-10T04:36:11;5.90;;;5.37;;
7215;SDS011;3649;48.798;9.798;2023-06-10T04:38:38;5.57;;;5.17;;
7215;SDS011;3649;48.798;9.798;2023-06-10T04:41:05;6.27;;;5.77;;
7215;SDS011;3649;48.798;9.798;2023-06-10T04:43:31;5.73;;;5.23;;
7215;SDS011;3649;48.798;9.798;2023-06-10T04:45:58;7.53;;;5.67;;
7215;SDS011;3649;48.798;9.798;2023-06-10T04:48:25;5.50;;;5.00;;
7215;SDS011;3649;48.798;9.798;2023-06-10T04:50:52;6.23;;;5.63;;
7215;SDS011;3649;48.798;9.798;2023-06-10T04:53:19;6.00;;;5.50;;
7215;SDS011;3649;48.798;9.798;2023-06-10T04:55:47;5.93;;;5.43;;
7215;SDS011;3649;48.798;9.798;2023-06-10T04:58:14;6.03;;;5.63;;
7215;SDS011;3649;48.798;9.798;2023-06-10T05:00:42;6.30;;;5.70;;
7215;SDS011;3649;48.798;9.798;2023-06-10T05:03:10;7.03;;;5.40;;
7215;SDS011;3649;48.798;9.798;2023-06-10T05:05:37;6.47;;;5.77;;
7215;SDS011;3649;48.798;9.798;2023-06-10T05:08:04;5.93;;;5.40;;
7215;SDS011;3649;48.798;9.798;2023-06-10T05:10:33;5.87;;;5.37;;
7215;SDS011;3649;48.798;9.798;2023-06-10T05:13:01;5.60;;;5.10;;
7215;SDS011;3649;48.798;9.798;2023-06-10T05:15:29;5.30;;;4.90;;
7215;SDS011;3649;48.798;9.798;2023-06-10T05:17:57;9.40;;;5.27;;
7215;SDS011;3649;48.798;9.798;2023-06-10T05:20:25;6.73;;;5.27;;
7215;SDS011;3649;48.798;9.798;2023-06-10T05:22:53;5.03;;;4.60;;
7215;SDS011;3649;48.798;9.798;2023-06-10T05:25:20;5.70;;;5.20;;
7215;SDS011;3649;48.798;9.798;2023-06-10T05:27:47;6.00;;;5.50;;
7215;SDS011;3649;48.798;9.798;2023-06-10T05:30:14;5.47;;;5.07;;
7215;SDS011;3649;48.798;9.798;2023-06-10T05:32:41;6.93;;;5.30;;
7215;SDS011;3649;48.798;9.798;2023-06-10T05:35:08;5.27;;;4.87;;
7215;SDS011;3649;48.798;9.798;2023-06-10T05:37:35;6.00;;;5.50;;
7215;SDS011;3649;48.798;9.798;2023-06-10T05:40:03;9.73;;;5.80;;
7215;SDS011;3649;48.798;9.798;2023-06-10T05:42:30;6.30;;;5.70;;
7215;SDS011;3649;48.798;9.798;2023-06-10T05:44:57;6.20;;;5.07;;
7215;SDS011;3649;48.798;9.798;2023-06-10T05:47:24;6.00;;;5.40;;
7215;SDS011;3649;48.798;9.798;2023-06-10T05:49:51;5.47;;;4.97;;
7215;SDS011;3649;48.798;9.798;2023-06-10T05:52:18;6.00;;;5.47;;
7215;SDS011;3649;48.798;9.798;2023-06-10T05:54:45;5.53;;;5.10;;
7215;SDS011;3649;48.798;9.798;2023-06-10T05:57:12;6.20;;;5.60;;
7215;SDS011;3649;48.798;9.798;2023-06-10T05:59:39;5.63;;;5.03;;
7215;SDS011;3649;48.798;9.798;2023-06-10T06:02:06;6.03;;;4.93;;
7215;SDS011;3649;48.798;9.798;2023-06-10T06:04:34;5.40;;;4.77;;
7215;SDS011;3649;48.798;9.798;2023-06-10T06:07:01;4.53;;;4.13;;
7215;SDS011;3649;48.798;9.798;2023-06-10T06:09:28;5.13;;;4.73;;
7215;SDS011;3649;48.798;9.798;2023-06-10T06:11:54;7.47;;;4.90;;
7215;SDS011;3649;48.798;9.798;2023-06-10T06:14:21;5.77;;;5.27;;
7215;SDS011;3649;48.798;9.798;2023-06-10T06:16:48;4.93;;;4.53;;
7215;SDS011;3649;48.798;9.798;2023-06-10T06:19:15;6.63;;;4.30;;
7215;SDS011;3649;48.798;9.798;2023-06-10T06:21:42;4.97;;;4.50;;
7215;SDS011;3649;48.798;9.798;2023-06-10T06:24:09;7.63;;;5.47;;
7215;SDS011;3649;48.798;9.798;2023-06-10T06:26:36;5.43;;;4.83;;
7215;SDS011;3649;48.798;9.798;2023-06-10T06:29:03;4.67;;;4.27;;
7215;SDS011;3649;48.798;9.798;2023-06-10T06:31:30;6.43;;;4.93;;
7215;SDS011;3649;48.798;9.798;2023-06-10T06:33:57;5.23;;;4.73;;
7215;SDS011;3649;48.798;9.798;2023-06-10T06:36:26;4.90;;;4.50;;
7215;SDS011;3649;48.798;9.798;2023-06-10T06:38:53;6.63;;;4.90;;
7215;SDS011;3649;48.798;9.798;2023-06-10T06:41:20;4.80;;;4.50;;
7215;SDS011;3649;48.798;9.798;2023-06-10T06:43:48;6.40;;;4.90;;
7215;SDS011;3649;48.798;9.798;2023-06-10T06:46:15;5.73;;;5.20;;
7215;SDS011;3649;48.798;9.798;2023-06-10T06:48:43;4.93;;;4.53;;
7215;SDS011;3649;48.798;9.798;2023-06-10T06:51:10;4.90;;;4.50;;
7215;SDS011;3649;48.798;9.798;2023-06-10T06:53:37;5.07;;;4.67;;
7215;SDS011;3649;48.798;9.798;2023-06-10T06:56:10;5.00;;;4.60;;
7215;SDS011;3649;48.798;9.798;2023-06-10T06:58:38;4.50;;;4.10;;
7215;SDS011;3649;48.798;9.798;2023-06-10T07:01:05;5.07;;;4.67;;
7215;SDS011;3649;48.798;9.798;2023-06-10T07:03:32;4.67;;;4.33;;
7215;SDS011;3649;48.798;9.798;2023-06-10T07:05:59;4.47;;;4.07;;
7215;SDS011;3649;48.798;9.798;2023-06-10T07:08:25;4.27;;;3.97;;
7215;SDS011;3649;48.798;9.798;2023-06-10T07:10:52;4.83;;;4.50;;
7215;SDS011;3649;48.798;9.798;2023-06-10T07:13:20;4.77;;;4.37;;
7215;SDS011;3649;48.798;9.798;2023-06-10T07:15:47;4.67;;;4.27;;
7215;SDS011;3649;48.798;9.798;2023-06-10T07:18:14;5.47;;;4.37;;
7215;SDS011;3649;48.798;9.798;2023-06-10T07:20:42;5.20;;;4.80;;
7215;SDS011;3649;48.798;9.798;2023-06-10T07:23:09;5.63;;;4.70;;
7215;SDS011;3649;48.798;9.798;2023-06-10T07:25:36;5.10;;;4.70;;
7215;SDS011;3649;48.798;9.798;2023-06-10T07:28:03;7.17;;;4.87;;
7215;SDS011;3649;48.798;9.798;2023-06-10T07:30:30;5.17;;;4.37;;
7215;SDS011;3649;48.798;9.798;2023-06-10T07:32:56;5.10;;;4.67;;
7215;SDS011;3649;48.798;9.798;2023-06-10T07:35:23;5.30;;;4.80;;
7215;SDS011;3649;48.798;9.798;2023-06-10T07:37:50;4.90;;;4.50;;
7215;SDS011;3649;48.798;9.798;2023-06-10T07:40:17;4.43;;;4.13;;
7215;SDS011;3649;48.798;9.798;2023-06-10T07:42:44;4.60;;;4.13;;
7215;SDS011;3649;48.798;9.798;2023-06-10T07:45:11;5.10;;;4.50;;
7215;SDS011;3649;48.798;9.798;2023-06-10T07:47:38;4.57;;;4.17;;
7215;SDS011;3649;48.798;9.798;2023-06-10T07:50:05;5.47;;;4.23;;
7215;SDS011;3649;48.798;9.798;2023-06-10T07:52:32;3.50;;;3.30;;
7215;SDS011;3649;48.798;9.798;2023-06-10T07:54:59;3.70;;;3.40;;
7215;SDS011;3649;48.798;9.798;2023-06-10T07:57:26;3.87;;;3.47;;
7215;SDS011;3649;48.798;9.798;2023-06-10T07:59:53;3.90;;;3.60;;
7215;SDS011;3649;48.798;9.798;2023-06-10T08:02:21;4.37;;;4.07;;
7215;SDS011;3649;48.798;9.798;2023-06-10T08:04:51;3.70;;;3.43;;
7215;SDS011;3649;48.798;9.798;2023-06-10T08:07:18;3.60;;;3.30;;
7215;SDS011;3649;48.798;9.798;2023-06-10T08:09:45;3.80;;;3.50;;
7215;SDS011;3649;48.798;9.798;2023-06-10T08:12:12;3.83;;;3.53;;
7215;SDS011;3649;48.798;9.798;2023-06-10T08:14:39;3.47;;;3.27;;
7215;SDS011;3649;48.798;9.798;2023-06-10T08:17:06;3.87;;;3.57;;
7215;SDS011;3649;48.798;9.798;2023-06-10T08:19:33;3.77;;;3.47;;
7215;SDS011;3649;48.798;9.798;2023-06-10T08:22:00;4.00;;;3.70;;
7215;SDS011;3649;48.798;9.798;2023-06-10T08:24:26;3.60;;;3.40;;
7215;SDS011;3649;48.798;9.798;2023-06-10T08:26:53;3.90;;;3.60;;
7215;SDS011;3649;48.798;9.798;2023-06-10T08:29:22;3.77;;;3.50;;
7215;SDS011;3649;48.798;9.798;2023-06-10T08:31:49;4.80;;;3.20;;
7215;SDS011;3649;48.798;9.798;2023-06-10T08:34:17;4.43;;;3.80;;
7215;SDS011;3649;48.798;9.798;2023-06-10T08:36:44;4.00;;;3.67;;
7215;SDS011;3649;48.798;9.798;2023-06-10T08:39:12;3.93;;;3.70;;
7215;SDS011;3649;48.798;9.798;2023-06-10T08:41:42;3.57;;;3.37;;
7215;SDS011;3649;48.798;9.798;2023-06-10T08:44:13;4.37;;;4.00;;
7215;SDS011;3649;48.798;9.798;2023-06-10T08:46:48;4.03;;;3.73;;
7215;SDS011;3649;48.798;9.798;2023-06-10T08:49:17;4.10;;;3.80;;
7215;SDS011;3649;48.798;9.798;2023-06-10T08:51:50;5.60;;;4.20;;
7215;SDS011;3649;48.798;9.798;2023-06-10T08:54:22;4.90;;;4.17;;
7215;SDS011;3649;48.798;9.798;2023-06-10T08:56:53;4.33;;;3.80;;
7215;SDS011;3649;48.798;9.798;2023-06-10T08:59:22;3.87;;;3.57;;
7215;SDS011;3649;48.798;9.798;2023-06-10T09:01:52;5.83;;;4.17;;
7215;SDS011;3649;48.798;9.798;2023-06-10T09:04:20;6.93;;;4.17;;
7215;SDS011;3649;48.798;9.798;2023-06-10T09:06:47;4.10;;;3.77;;
7215;SDS011;3649;48.798;9.798;2023-06-10T09:09:16;4.30;;;3.97;;
7215;SDS011;3649;48.798;9.798;2023-06-10T09:11:44;4.83;;;3.80;;
7215;SDS011;3649;48.798;9.798;2023-06-10T09:14:11;4.30;;;3.90;;
7215;SDS011;3649;48.798;9.798;2023-06-10T09:16:43;4.37;;;4.03;;
7215;SDS011;3649;48.798;9.798;2023-06-10T09:19:12;4.53;;;4.13;;
7215;SDS011;3649;48.798;9.798;2023-06-10T09:21:40;5.50;;;4.37;;
7215;SDS011;3649;48.798;9.798;2023-06-10T09:24:07;4.60;;;4.10;;
7215;SDS011;3649;48.798;9.798;2023-06-10T09:26:34;4.73;;;3.93;;
7215;SDS011;3649;48.798;9.798;2023-06-10T09:29:04;4.53;;;3.90;;
7215;SDS011;3649;48.798;9.798;2023-06-10T09:31:35;4.70;;;4.37;;
7215;SDS011;3649;48.798;9.798;2023-06-10T09:34:12;4.50;;;4.10;;
7215;SDS011;3649;48.798;9.798;2023-06-10T09:36:42;3.70;;;3.40;;
7215;SDS011;3649;48.798;9.798;2023-06-10T09:39:14;5.63;;;3.90;;
7215;SDS011;3649;48.798;9.798;2023-06-10T09:41:45;4.17;;;3.87;;
7215;SDS011;3649;48.798;9.798;2023-06-10T09:44:16;3.97;;;3.57;;
7215;SDS011;3649;48.798;9.798;2023-06-10T09:46:45;4.20;;;3.80;;
7215;SDS011;3649;48.798;9.798;2023-06-10T09:49:13;3.50;;;3.30;;
7215;SDS011;3649;48.798;9.798;2023-06-10T09:51:50;3.93;;;3.50;;
7215;SDS011;3649;48.798;9.798;2023-06-10T09:54:18;4.70;;;3.53;;
7215;SDS011;3649;48.798;9.798;2023-06-10T09:56:49;3.83;;;3.53;;
7215;SDS011;3649;48.798;9.798;2023-06-10T09:59:30;3.77;;;3.47;;
7215;SDS011;3649;48.798;9.798;2023-06-10T10:02:00;3.87;;;3.57;;
7215;SDS011;3649;48.798;9.798;2023-06-10T10:04:27;3.80;;;3.30;;
7215;SDS011;3649;48.798;9.798;2023-06-10T10:06:55;4.23;;;3.93;;
7215;SDS011;3649;48.798;9.798;2023-06-10T10:09:22;5.47;;;4.07;;
7215;SDS011;3649;48.798;9.798;2023-06-10T10:11:49;4.30;;;3.90;;
7215;SDS011;3649;48.798;9.798;2023-06-10T10:14:18;3.93;;;3.67;;
7215;SDS011;3649;48.798;9.798;2023-06-10T10:16:46;4.67;;;3.90;;
7215;SDS011;3649;48.798;9.798;2023-06-10T10:19:18;6.17;;;3.80;;
7215;SDS011;3649;48.798;9.798;2023-06-10T10:21:52;5.33;;;4.37;;
7215;SDS011;3649;48.798;9.798;2023-06-10T10:24:23;4.10;;;3.77;;
7215;SDS011;3649;48.798;9.798;2023-06-10T10:26:58;4.20;;;3.90;;
7215;SDS011;3649;48.798;9.798;2023-06-10T10:29:29;3.97;;;3.67;;
7215;SDS011;3649;48.798;9.798;2023-06-10T10:31:59;4.93;;;4.00;;
7215;SDS011;3649;48.798;9.798;2023-06-10T10:34:35;4.63;;;4.17;;
7215;SDS011;3649;48.798;9.798;2023-06-10T10:37:10;4.60;;;4.20;;
7215;SDS011;3649;48.798;9.798;2023-06-10T10:39:37;8.00;;;3.93;;
7215;SDS011;3649;48.798;9.798;2023-06-10T10:42:04;4.40;;;4.10;;
7215;SDS011;3649;48.798;9.798;2023-06-10T10:44:37;7.17;;;4.20;;
7215;SDS011;3649;48.798;9.798;2023-06-10T10:47:06;4.93;;;4.43;;
7215;SDS011;3649;48.798;9.798;2023-06-10T10:49:35;4.80;;;4.40;;
7215;SDS011;3649;48.798;9.798;2023-06-10T10:52:04;4.47;;;4.07;;
7215;SDS011;3649;48.798;9.798;2023-06-10T10:54:34;4.33;;;4.03;;
7215;SDS011;3649;48.798;9.798;2023-06-10T10:57:13;3.83;;;3.53;;
7215;SDS011;3649;48.798;9.798;2023-06-10T11:04:58;4.57;;;4.17;;
7215;SDS011;3649;48.798;9.798;2023-06-10T11:07:30;4.73;;;3.70;;
7215;SDS011;3649;48.798;9.798;2023-06-10T11:09:59;4.87;;;4.53;;
7215;SDS011;3649;48.798;9.798;2023-06-10T11:15:24;4.57;;;4.17;;
7215;SDS011;3649;48.798;9.798;2023-06-10T11:18:11;3.90;;;3.60;;
7215;SDS011;3649;48.798;9.798;2023-06-10T11:26:11;3.93;;;3.63;;
7215;SDS011;3649;48.798;9.798;2023-06-10T11:33:53;3.67;;;3.37;;
7215;SDS011;3649;48.798;9.798;2023-06-10T11:36:22;3.90;;;3.67;;
7215;SDS011;3649;48.798;9.798;2023-06-10T11:38:50;3.73;;;3.43;;
7215;SDS011;3649;48.798;9.798;2023-06-10T11:41:23;3.50;;;3.27;;
7215;SDS011;3649;48.798;9.798;2023-06-10T11:43:52;3.73;;;3.43;;
7215;SDS011;3649;48.798;9.798;2023-06-10T11:46:22;4.40;;;3.30;;
7215;SDS011;3649;48.798;9.798;2023-06-10T11:48:52;3.37;;;3.10;;
7215;SDS011;3649;48.798;9.798;2023-06-10T11:51:21;3.37;;;3.17;;
7215;SDS011;3649;48.798;9.798;2023-06-10T11:53:48;3.00;;;2.80;;
7215;SDS011;3649;48.798;9.798;2023-06-10T11:56:20;6.37;;;3.13;;
7215;SDS011;3649;48.798;9.798;2023-06-10T11:59:01;3.40;;;3.20;;
7215;SDS011;3649;48.798;9.798;2023-06-10T12:01:31;3.43;;;3.13;;
7215;SDS011;3649;48.798;9.798;2023-06-10T12:04:07;3.23;;;3.03;;
7215;SDS011;3649;48.798;9.798;2023-06-10T12:06:42;3.60;;;3.30;;
7215;SDS011;3649;48.798;9.798;2023-06-10T12:09:13;3.47;;;3.17;;
7215;SDS011;3649;48.798;9.798;2023-06-10T12:11:54;3.47;;;3.17;;
7215;SDS011;3649;48.798;9.798;2023-06-10T12:20:01;3.57;;;3.37;;
7215;SDS011;3649;48.798;9.798;2023-06-10T12:22:37;3.10;;;2.90;;
7215;SDS011;3649;48.798;9.798;2023-06-10T12:25:06;3.27;;;3.07;;
7215;SDS011;3649;48.798;9.798;2023-06-10T12:27:34;5.30;;;3.10;;
7215;SDS011;3649;48.798;9.798;2023-06-10T12:30:03;3.67;;;3.47;;
7215;SDS011;3649;48.798;9.798;2023-06-10T12:32:35;3.53;;;3.30;;
7215;SDS011;3649;48.798;9.798;2023-06-10T12:35:04;3.97;;;3.23;;
7215;SDS011;3649;48.798;9.798;2023-06-10T12:37:33;3.00;;;2.70;;
7215;SDS011;3649;48.798;9.798;2023-06-10T12:40:01;3.20;;;3.00;;
7215;SDS011;3649;48.798;9.798;2023-06-10T12:42:29;3.57;;;3.27;;
7215;SDS011;3649;48.798;9.798;2023-06-10T12:45:00;4.33;;;3.07;;
7215;SDS011;3649;48.798;9.798;2023-06-10T12:47:31;3.17;;;2.97;;
7215;SDS011;3649;48.798;9.798;2023-06-10T12:50:01;5.33;;;3.13;;
7215;SDS011;3649;48.798;9.798;2023-06-10T12:52:29;3.33;;;3.10;;
7215;SDS011;3649;48.798;9.798;2023-06-10T12:54:56;3.90;;;3.50;;
7215;SDS011;3649;48.798;9.798;2023-06-10T12:57:23;3.80;;;3.50;;
7215;SDS011;3649;48.798;9.798;2023-06-10T12:59:51;3.40;;;3.20;;
7215;SDS011;3649;48.798;9.798;2023-06-10T13:02:23;3.00;;;2.80;;
7215;SDS011;3649;48.798;9.798;2023-06-10T13:04:50;3.10;;;2.90;;
7215;SDS011;3649;48.798;9.798;2023-06-10T13:07:18;4.10;;;3.37;;
7215;SDS011;3649;48.798;9.798;2023-06-10T13:09:45;5.50;;;3.33;;
7215;SDS011;3649;48.798;9.798;2023-06-10T13:12:15;3.80;;;3.50;;
7215;SDS011;3649;48.798;9.798;2023-06-10T13:14:52;2.90;;;2.70;;
7215;SDS011;3649;48.798;9.798;2023-06-10T13:17:20;2.73;;;2.53;;
7215;SDS011;3649;48.798;9.798;2023-06-10T13:19:47;4.67;;;3.07;;
7215;SDS011;3649;48.798;9.798;2023-06-10T13:22:15;3.23;;;3.07;;
7215;SDS011;3649;48.798;9.798;2023-06-10T13:24:42;3.23;;;3.03;;
7215;SDS011;3649;48.798;9.798;2023-06-10T13:27:10;4.53;;;3.10;;
7215;SDS011;3649;48.798;9.798;2023-06-10T13:29:36;3.83;;;3.07;;
7215;SDS011;3649;48.798;9.798;2023-06-10T13:32:03;3.10;;;2.90;;
7215;SDS011;3649;48.798;9.798;2023-06-10T13:34:30;3.17;;;2.93;;
7215;SDS011;3649;48.798;9.798;2023-06-10T13:36:57;3.17;;;2.97;;
7215;SDS011;3649;48.798;9.798;2023-06-10T13:39:25;6.47;;;2.80;;
7215;SDS011;3649;48.798;9.798;2023-06-10T13:41:52;4.40;;;2.90;;
7215;SDS011;3649;48.798;9.798;2023-06-10T13:44:19;4.10;;;3.10;;
7215;SDS011;3649;48.798;9.798;2023-06-10T13:46:46;4.03;;;3.07;;
7215;SDS011;3649;48.798;9.798;2023-06-10T13:49:15;4.27;;;3.30;;
7215;SDS011;3649;48.798;9.798;2023-06-10T13:51:42;4.20;;;2.90;;
7215;SDS011;3649;48.798;9.798;2023-06-10T13:54:09;3.80;;;3.50;;
7215;SDS011;3649;48.798;9.798;2023-06-10T13:56:37;2.93;;;2.73;;
7215;SDS011;3649;48.798;9.798;2023-06-10T13:59:05;3.37;;;3.17;;
7215;SDS011;3649;48.798;9.798;2023-06-10T14:01:32;4.27;;;3.37;;
7215;SDS011;3649;48.798;9.798;2023-06-10T14:03:59;3.83;;;2.90;;
7215;SDS011;3649;48.798;9.798;2023-06-10T14:06:26;3.10;;;2.83;;
7215;SDS011;3649;48.798;9.798;2023-06-10T14:08:53;3.27;;;3.07;;
7215;SDS011;3649;48.798;9.798;2023-06-10T14:11:23;3.27;;;3.07;;
7215;SDS011;3649;48.798;9.798;2023-06-10T14:13:50;3.73;;;3.43;;
7215;SDS011;3649;48.798;9.798;2023-06-10T14:16:17;6.13;;;3.53;;
7215;SDS011;3649;48.798;9.798;2023-06-10T14:18:44;3.37;;;3.17;;
7215;SDS011;3649;48.798;9.798;2023-06-10T14:21:11;3.80;;;3.23;;
7215;SDS011;3649;48.798;9.798;2023-06-10T14:23:38;2.80;;;2.60;;
7215;SDS011;3649;48.798;9.798;2023-06-10T14:26:05;4.20;;;2.87;;
7215;SDS011;3649;48.798;9.798;2023-06-10T14:28:33;2.47;;;2.37;;
7215;SDS011;3649;48.798;9.798;2023-06-10T14:31:00;2.93;;;2.73;;
7215;SDS011;3649;48.798;9.798;2023-06-10T14:33:27;3.03;;;2.80;;
7215;SDS011;3649;48.798;9.798;2023-06-10T14:35:54;3.00;;;2.80;;
7215;SDS011;3649;48.798;9.798;2023-06-10T14:38:21;3.10;;;2.80;;
7215;SDS011;3649;48.798;9.798;2023-06-10T14:40:47;3.20;;;2.70;;
7215;SDS011;3649;48.798;9.798;2023-06-10T14:43:14;3.13;;;2.93;;
7215;SDS011;3649;48.798;9.798;2023-06-10T14:45:41;3.50;;;3.20;;
7215;SDS011;3649;48.798;9.798;2023-06-10T14:48:09;2.93;;;2.73;;
7215;SDS011;3649;48.798;9.798;2023-06-10T14:50:36;3.10;;;2.90;;
7215;SDS011;3649;48.798;9.798;2023-06-10T14:53:04;3.30;;;3.00;;
7215;SDS011;3649;48.798;9.798;2023-06-10T14:55:30;3.63;;;3.43;;
7215;SDS011;3649;48.798;9.798;2023-06-10T14:57:57;3.73;;;3.40;;
7215;SDS011;3649;48.798;9.798;2023-06-10T15:00:24;3.00;;;2.80;;
7215;SDS011;3649;48.798;9.798;2023-06-10T15:02:52;3.30;;;3.10;;
7215;SDS011;3649;48.798;9.798;2023-06-10T15:05:21;3.13;;;2.93;;
7215;SDS011;3649;48.798;9.798;2023-06-10T15:07:48;3.30;;;3.00;;
7215;SDS011;3649;48.798;9.798;2023-06-10T15:10:15;3.33;;;3.10;;
7215;SDS011;3649;48.798;9.798;2023-06-10T15:12:44;3.37;;;3.17;;
7215;SDS011;3649;48.798;9.798;2023-06-10T15:15:11;3.20;;;2.90;;
7215;SDS011;3649;48.798;9.798;2023-06-10T15:17:38;3.63;;;3.43;;
7215;SDS011;3649;48.798;9.798;2023-06-10T15:20:05;3.07;;;2.87;;
7215;SDS011;3649;48.798;9.798;2023-06-10T15:22:32;4.07;;;3.17;;
7215;SDS011;3649;48.798;9.798;2023-06-10T15:25:01;3.43;;;3.23;;
7215;SDS011;3649;48.798;9.798;2023-06-10T15:27:48;3.50;;;3.20;;
7215;SDS011;3649;48.798;9.798;2023-06-10T15:30:15;3.77;;;3.50;;
7215;SDS011;3649;48.798;9.798;2023-06-10T15:32:42;3.67;;;3.47;;
7215;SDS011;3649;48.798;9.798;2023-06-10T15:35:09;4.00;;;3.03;;
7215;SDS011;3649;48.798;9.798;2023-06-10T15:37:37;4.00;;;3.23;;
7215;SDS011;3649;48.798;9.798;2023-06-10T15:40:04;3.43;;;3.23;;
7215;SDS011;3649;48.798;9.798;2023-06-10T15:42:31;3.70;;;3.43;;
7215;SDS011;3649;48.798;9.798;2023-06-10T15:44:58;4.17;;;3.80;;
7215;SDS011;3649;48.798;9.798;2023-06-10T15:47:25;3.60;;;3.30;;
7215;SDS011;3649;48.798;9.798;2023-06-10T15:49:52;3.67;;;3.37;;